Cachoeirinha, Brazil
Current Conditions -  °F | °C
As of 3:40 PM on Sunday 21 Dec 2014 (Local Time) from SBCO Reporting Station
Thunderstorm Thunderstorm  
Wind Chill: 72°   Ceiling: 300
Heat Index: 72°   Visibility: 1.2mi
Dew Point: 72°   Wind: 10mph
Humidity: 100%   Direction: 250°WSW
Pressure: 29.5"   Gusts: NA
Location:  29.95°S, 51.09°W
Report Text: SBCO 211740Z 25009KT 200V280 2000 +TSRA BR BKN003 BKN010 FEW030CBOVC040 22/22 Q0999
Loading
Personal Weather Stations






























Interactive Weather Map New forecast layout! Learn more

10-Day Weather Forecast

Advertisements
Track Severe Weather on mobile